CCA833 WMKK-ZUCK
Flight info
| Callsign | CCA833 |
|---|---|
| Flight time | N/A |
| Altitude | 37000 |
| Route | PIBOS1D PIBOS R208 IGARI/K0915F370 M765 BITOD M755 KISAN/N0494F370 M755 TIA N639 VILAO/K0913F370 N639 BIVIM DCT DADIN DCT NAKHA/K0915S1130 DCT XEREN DCT IDEPO DCT RUPIL DCT SUMUN DCT AGTIS DCT ASIPO DCT SEGDA SEGDD2 |
| Aircraft | B77W/H-SDE1E2E3FGHIJ2J3J4J5M1RWXY/LB1D1 |
Departure
| Time | 2026-05-06 16:28 |
|---|---|
| Airport | Kuala Lumpur International Airport (WMKK) |
Arrival
| Time | N/A |
|---|---|
| Airport | Chongqing Jiangbei International Airport (ZUCK) |
| Time | Latitude | Longitude | Altitude | Speed | Heading |
|---|---|---|---|---|---|
| 2026-05-06 15:16 | 2.75387 | 101.70855 | 86 ft | 0 kts | 326° |
| 2026-05-06 16:11 | 2.75388 | 101.70854 | 86 ft | 0 kts | 326° |
| 2026-05-06 16:11 | 2.75385 | 101.70856 | 86 ft | 1 kts | 326° |
| 2026-05-06 16:11 | 2.75366 | 101.70869 | 86 ft | 3 kts | 328° |
| 2026-05-06 16:12 | 2.75343 | 101.70882 | 86 ft | 3 kts | 336° |
| 2026-05-06 16:12 | 2.75322 | 101.70887 | 86 ft | 1 kts | 6° |
| 2026-05-06 16:12 | 2.75318 | 101.70886 | 86 ft | 0 kts | 14° |
| 2026-05-06 16:12 | 2.75332 | 101.70889 | 86 ft | 2 kts | 18° |
| 2026-05-06 16:13 | 2.75337 | 101.70893 | 86 ft | 0 kts | 46° |
| 2026-05-06 16:13 | 2.75341 | 101.70901 | 86 ft | 2 kts | 66° |
| 2026-05-06 16:13 | 2.75352 | 101.70922 | 85 ft | 3 kts | 55° |
| 2026-05-06 16:13 | 2.75357 | 101.70929 | 85 ft | 0 kts | 54° |
| 2026-05-06 16:18 | 2.75358 | 101.70931 | 85 ft | 2 kts | 54° |
| 2026-05-06 16:19 | 2.75389 | 101.70978 | 83 ft | 13 kts | 58° |
| 2026-05-06 16:19 | 2.75460 | 101.71084 | 80 ft | 21 kts | 56° |
| 2026-05-06 16:19 | 2.75542 | 101.71204 | 77 ft | 19 kts | 56° |
| 2026-05-06 16:19 | 2.75610 | 101.71304 | 75 ft | 14 kts | 56° |
| 2026-05-06 16:20 | 2.75652 | 101.71367 | 74 ft | 7 kts | 57° |
| 2026-05-06 16:20 | 2.75657 | 101.71419 | 73 ft | 10 kts | 124° |
| 2026-05-06 16:20 | 2.75568 | 101.71486 | 73 ft | 20 kts | 146° |
| 2026-05-06 16:20 | 2.75449 | 101.71564 | 74 ft | 20 kts | 145° |
| 2026-05-06 16:21 | 2.75329 | 101.71646 | 74 ft | 21 kts | 145° |
| 2026-05-06 16:21 | 2.75209 | 101.71727 | 74 ft | 20 kts | 147° |
| 2026-05-06 16:21 | 2.75088 | 101.71806 | 76 ft | 20 kts | 146° |
| 2026-05-06 16:21 | 2.74975 | 101.71883 | 78 ft | 18 kts | 146° |
| 2026-05-06 16:22 | 2.74868 | 101.71954 | 80 ft | 18 kts | 146° |
| 2026-05-06 16:22 | 2.74783 | 101.72012 | 81 ft | 7 kts | 146° |
| 2026-05-06 16:22 | 2.74754 | 101.72052 | 82 ft | 7 kts | 95° |
| 2026-05-06 16:22 | 2.74767 | 101.72086 | 82 ft | 0 kts | 55° |
| 2026-05-06 16:26 | 2.74782 | 101.72108 | 83 ft | 9 kts | 55° |
| 2026-05-06 16:26 | 2.74815 | 101.72156 | 84 ft | 7 kts | 54° |
| 2026-05-06 16:26 | 2.74845 | 101.72186 | 84 ft | 5 kts | 18° |
| 2026-05-06 16:27 | 2.74881 | 101.72174 | 83 ft | 6 kts | 326° |
| 2026-05-06 16:27 | 2.74951 | 101.72128 | 81 ft | 27 kts | 326° |
| 2026-05-06 16:27 | 2.75318 | 101.71881 | 75 ft | 99 kts | 326° |
| 2026-05-06 16:27 | 2.76079 | 101.71371 | 70 ft | 161 kts | 326° |
| 2026-05-06 16:28 | 2.77099 | 101.70682 | 403 ft | 184 kts | 327° |
| 2026-05-06 16:28 | 2.78186 | 101.69964 | 1046 ft | 196 kts | 329° |
| 2026-05-06 16:28 | 2.79373 | 101.69214 | 1574 ft | 211 kts | 331° |
| 2026-05-06 16:28 | 2.80716 | 101.68456 | 1914 ft | 235 kts | 335° |
| 2026-05-06 16:29 | 2.82284 | 101.67754 | 2405 ft | 253 kts | 342° |
| 2026-05-06 16:29 | 2.84013 | 101.67271 | 3072 ft | 263 kts | 347° |
| 2026-05-06 16:29 | 2.85789 | 101.66778 | 3885 ft | 268 kts | 344° |
| 2026-05-06 16:29 | 2.87564 | 101.66182 | 4691 ft | 273 kts | 342° |
| 2026-05-06 16:30 | 2.89341 | 101.65550 | 5500 ft | 276 kts | 343° |
| 2026-05-06 16:30 | 2.90606 | 101.65286 | 6041 ft | 275 kts | 359° |
| 2026-05-06 16:30 | 2.93056 | 101.65842 | 7020 ft | 277 kts | 27° |
| 2026-05-06 16:30 | 2.94750 | 101.66742 | 7810 ft | 279 kts | 31° |
| 2026-05-06 16:31 | 2.96448 | 101.67723 | 8547 ft | 282 kts | 32° |
| 2026-05-06 16:31 | 2.98150 | 101.68716 | 9244 ft | 287 kts | 32° |
| 2026-05-06 16:31 | 2.99869 | 101.69717 | 9975 ft | 290 kts | 32° |
| 2026-05-06 16:31 | 3.01637 | 101.70744 | 10566 ft | 299 kts | 32° |
| 2026-05-06 16:32 | 3.03489 | 101.71822 | 10979 ft | 316 kts | 32° |
| 2026-05-06 16:32 | 3.05434 | 101.72952 | 11425 ft | 331 kts | 32° |
| 2026-05-06 16:32 | 3.07481 | 101.74142 | 11867 ft | 346 kts | 32° |
| 2026-05-06 16:32 | 3.09613 | 101.75381 | 12313 ft | 360 kts | 32° |
| 2026-05-06 16:33 | 3.11819 | 101.76664 | 12762 ft | 374 kts | 32° |
| 2026-05-06 16:33 | 3.14113 | 101.78001 | 13178 ft | 389 kts | 33° |
| 2026-05-06 16:33 | 3.16329 | 101.79633 | 13725 ft | 397 kts | 44° |
| 2026-05-06 16:34 | 3.19792 | 101.83901 | 15323 ft | 400 kts | 57° |
| 2026-05-06 16:34 | 3.21360 | 101.86193 | 16103 ft | 403 kts | 57° |
| 2026-05-06 16:34 | 3.22968 | 101.88554 | 16818 ft | 407 kts | 57° |
| 2026-05-06 16:34 | 3.24562 | 101.90898 | 17497 ft | 412 kts | 57° |
| 2026-05-06 16:35 | 3.26174 | 101.93274 | 18155 ft | 416 kts | 57° |
| 2026-05-06 16:35 | 3.27831 | 101.95658 | 18784 ft | 421 kts | 54° |
| 2026-05-06 16:35 | 3.29604 | 101.98034 | 19365 ft | 427 kts | 54° |
| 2026-05-06 16:35 | 3.31372 | 102.00394 | 19955 ft | 431 kts | 54° |
| 2026-05-06 16:36 | 3.33189 | 102.02805 | 20538 ft | 436 kts | 52° |
| 2026-05-06 16:36 | 3.35274 | 102.05029 | 21094 ft | 441 kts | 43° |
| 2026-05-06 16:36 | 3.37715 | 102.06911 | 21625 ft | 447 kts | 34° |
| 2026-05-06 16:36 | 3.40428 | 102.08534 | 22166 ft | 451 kts | 31° |
| 2026-05-06 16:37 | 3.43145 | 102.10098 | 22745 ft | 454 kts | 31° |
| 2026-05-06 16:37 | 3.45914 | 102.11628 | 23271 ft | 459 kts | 28° |
| 2026-05-06 16:37 | 3.48774 | 102.13074 | 23744 ft | 464 kts | 28° |
| 2026-05-06 16:37 | 3.51676 | 102.14535 | 24253 ft | 468 kts | 28° |
| 2026-05-06 16:38 | 3.54623 | 102.16026 | 24814 ft | 471 kts | 28° |
| 2026-05-06 16:38 | 3.57551 | 102.17512 | 25333 ft | 475 kts | 28° |
| 2026-05-06 16:38 | 3.60498 | 102.19012 | 25818 ft | 479 kts | 28° |
| 2026-05-06 16:38 | 3.63513 | 102.20549 | 26359 ft | 482 kts | 28° |
| 2026-05-06 16:39 | 3.66503 | 102.22076 | 26859 ft | 485 kts | 28° |
| 2026-05-06 16:39 | 3.69513 | 102.23613 | 27308 ft | 490 kts | 28° |
| 2026-05-06 16:39 | 3.72559 | 102.25171 | 27770 ft | 494 kts | 28° |
| 2026-05-06 16:39 | 3.75627 | 102.26740 | 28237 ft | 497 kts | 28° |
| 2026-05-06 16:40 | 3.78736 | 102.28331 | 28714 ft | 501 kts | 28° |
| 2026-05-06 16:40 | 3.81844 | 102.29923 | 29199 ft | 503 kts | 28° |
| 2026-05-06 16:40 | 3.84958 | 102.31517 | 29826 ft | 503 kts | 28° |
| 2026-05-06 16:40 | 3.88073 | 102.33112 | 30538 ft | 500 kts | 28° |
| 2026-05-06 16:41 | 3.91166 | 102.34696 | 31229 ft | 498 kts | 28° |
| 2026-05-06 16:41 | 3.94223 | 102.36262 | 31862 ft | 496 kts | 28° |
| 2026-05-06 16:41 | 3.97298 | 102.37837 | 32426 ft | 496 kts | 28° |
| 2026-05-06 16:41 | 4.00399 | 102.39427 | 33031 ft | 496 kts | 28° |
| 2026-05-06 16:42 | 4.03435 | 102.40983 | 33673 ft | 494 kts | 28° |
| 2026-05-06 16:42 | 4.06521 | 102.42564 | 34391 ft | 491 kts | 28° |
| 2026-05-06 16:42 | 4.09517 | 102.44099 | 35075 ft | 488 kts | 28° |
| 2026-05-06 16:42 | 4.12536 | 102.45647 | 35695 ft | 486 kts | 28° |
| 2026-05-06 16:43 | 4.15631 | 102.47234 | 36221 ft | 486 kts | 28° |
| 2026-05-06 16:43 | 4.18907 | 102.48914 | 36696 ft | 486 kts | 28° |
| 2026-05-06 16:43 | 4.22193 | 102.50599 | 36899 ft | 489 kts | 28° |
| 2026-05-06 16:44 | 4.28834 | 102.54003 | 36908 ft | 486 kts | 28° |
| 2026-05-06 16:44 | 4.35221 | 102.57280 | 36920 ft | 486 kts | 28° |
| 2026-05-06 16:45 | 4.41594 | 102.60550 | 36927 ft | 484 kts | 28° |
| 2026-05-06 16:45 | 4.47807 | 102.63738 | 36931 ft | 484 kts | 28° |
| 2026-05-06 16:46 | 4.53995 | 102.66914 | 36937 ft | 484 kts | 28° |
| 2026-05-06 16:46 | 4.60035 | 102.70015 | 36952 ft | 483 kts | 28° |
| 2026-05-06 16:47 | 4.66551 | 102.73259 | 36963 ft | 483 kts | 28° |
| 2026-05-06 16:47 | 4.72991 | 102.76437 | 36970 ft | 483 kts | 28° |
| 2026-05-06 16:48 | 4.79249 | 102.79531 | 36946 ft | 483 kts | 28° |
| 2026-05-06 16:48 | 4.85626 | 102.82687 | 36918 ft | 484 kts | 28° |
| 2026-05-06 16:49 | 4.91893 | 102.85830 | 36899 ft | 484 kts | 28° |
| 2026-05-06 16:49 | 4.98050 | 102.88945 | 36887 ft | 483 kts | 28° |
| 2026-05-06 16:50 | 5.04586 | 102.92251 | 36880 ft | 482 kts | 28° |
| 2026-05-06 16:50 | 5.10987 | 102.95488 | 36871 ft | 482 kts | 28° |
| 2026-05-06 16:51 | 5.17139 | 102.98599 | 36871 ft | 482 kts | 28° |
| 2026-05-06 16:51 | 5.23137 | 103.01633 | 36870 ft | 481 kts | 28° |
| 2026-05-06 16:52 | 5.29508 | 103.04856 | 36869 ft | 483 kts | 28° |
| 2026-05-06 16:52 | 5.35827 | 103.08018 | 36862 ft | 483 kts | 25° |
| 2026-05-06 16:53 | 5.42393 | 103.10471 | 36869 ft | 483 kts | 21° |
| 2026-05-06 16:53 | 5.48859 | 103.12794 | 36860 ft | 482 kts | 21° |
| 2026-05-06 16:54 | 5.55258 | 103.15098 | 36864 ft | 482 kts | 21° |
| 2026-05-06 16:54 | 5.61865 | 103.17477 | 36861 ft | 481 kts | 21° |
| 2026-05-06 16:55 | 5.68539 | 103.19885 | 36852 ft | 482 kts | 21° |
| 2026-05-06 16:55 | 5.75287 | 103.22318 | 36854 ft | 482 kts | 21° |
| 2026-05-06 16:56 | 5.81734 | 103.24354 | 36852 ft | 482 kts | 18° |
| 2026-05-06 16:56 | 5.88154 | 103.26281 | 36851 ft | 482 kts | 18° |
| 2026-05-06 16:57 | 5.94573 | 103.28222 | 36847 ft | 480 kts | 18° |
| 2026-05-06 16:57 | 6.01124 | 103.30212 | 36847 ft | 481 kts | 18° |
| 2026-05-06 16:58 | 6.07507 | 103.32156 | 36846 ft | 481 kts | 18° |
| 2026-05-06 16:58 | 6.13925 | 103.34114 | 36846 ft | 481 kts | 18° |
| 2026-05-06 16:59 | 6.20354 | 103.36076 | 36836 ft | 481 kts | 18° |
| 2026-05-06 16:59 | 6.26746 | 103.38029 | 36828 ft | 481 kts | 18° |
| 2026-05-06 17:00 | 6.33158 | 103.39987 | 36827 ft | 481 kts | 18° |
| 2026-05-06 17:00 | 6.40179 | 103.42133 | 36826 ft | 480 kts | 18° |
| 2026-05-06 17:01 | 6.46592 | 103.44094 | 36833 ft | 481 kts | 18° |
| 2026-05-06 17:01 | 6.53017 | 103.46059 | 36835 ft | 479 kts | 18° |
| 2026-05-06 17:02 | 6.59422 | 103.48019 | 36843 ft | 481 kts | 18° |
| 2026-05-06 17:02 | 6.65818 | 103.49976 | 36847 ft | 480 kts | 18° |
| 2026-05-06 17:03 | 6.72211 | 103.51932 | 36846 ft | 480 kts | 18° |
| 2026-05-06 17:03 | 6.79306 | 103.54105 | 36844 ft | 481 kts | 18° |
| 2026-05-06 17:04 | 6.86397 | 103.56303 | 36835 ft | 477 kts | 21° |
| 2026-05-06 17:04 | 6.92235 | 103.59451 | 36845 ft | 477 kts | 38° |
| 2026-05-06 17:05 | 6.96889 | 103.64178 | 36844 ft | 476 kts | 54° |
| 2026-05-06 17:05 | 7.00423 | 103.69805 | 36846 ft | 476 kts | 59° |
| 2026-05-06 17:06 | 7.03849 | 103.75485 | 36848 ft | 475 kts | 59° |
| 2026-05-06 17:06 | 7.07266 | 103.81166 | 36845 ft | 476 kts | 59° |
| 2026-05-06 17:07 | 7.10679 | 103.86846 | 36849 ft | 479 kts | 59° |
| 2026-05-06 17:07 | 7.14519 | 103.93244 | 36846 ft | 476 kts | 59° |
| 2026-05-06 17:08 | 7.18511 | 103.99900 | 36842 ft | 476 kts | 59° |
| 2026-05-06 17:08 | 7.22919 | 104.06440 | 36830 ft | 477 kts | 47° |
| 2026-05-06 17:09 | 7.29081 | 104.11261 | 36822 ft | 480 kts | 28° |
| 2026-05-06 17:09 | 7.36561 | 104.13703 | 36828 ft | 483 kts | 11° |
| 2026-05-06 17:10 | 7.44386 | 104.14992 | 36826 ft | 484 kts | 11° |
| 2026-05-06 17:10 | 7.52148 | 104.16270 | 36825 ft | 484 kts | 11° |
| 2026-05-06 17:11 | 7.59969 | 104.17568 | 36827 ft | 486 kts | 11° |
| 2026-05-06 17:11 | 7.66875 | 104.18718 | 36829 ft | 487 kts | 11° |
| 2026-05-06 17:12 | 7.73610 | 104.19842 | 36838 ft | 488 kts | 11° |
| 2026-05-06 17:12 | 7.80313 | 104.20960 | 36847 ft | 488 kts | 10° |
| 2026-05-06 17:13 | 7.87062 | 104.22088 | 36847 ft | 488 kts | 11° |
| 2026-05-06 17:13 | 7.93786 | 104.23212 | 36844 ft | 489 kts | 10° |
| 2026-05-06 17:14 | 8.00519 | 104.24339 | 36836 ft | 489 kts | 11° |
| 2026-05-06 17:14 | 8.07226 | 104.25461 | 36831 ft | 490 kts | 10° |
| 2026-05-06 17:15 | 8.13984 | 104.26592 | 36829 ft | 489 kts | 11° |
| 2026-05-06 17:15 | 8.20722 | 104.27720 | 36826 ft | 489 kts | 11° |
| 2026-05-06 17:16 | 8.27445 | 104.28846 | 36826 ft | 488 kts | 10° |
| 2026-05-06 17:16 | 8.34143 | 104.29969 | 36826 ft | 489 kts | 10° |
| 2026-05-06 17:17 | 8.40962 | 104.31112 | 36826 ft | 490 kts | 10° |
| 2026-05-06 17:17 | 8.47721 | 104.32246 | 36827 ft | 490 kts | 10° |
| 2026-05-06 17:18 | 8.54479 | 104.33379 | 36826 ft | 491 kts | 10° |
| 2026-05-06 17:18 | 8.61230 | 104.34512 | 36826 ft | 490 kts | 10° |
| 2026-05-06 17:19 | 8.67970 | 104.35643 | 36826 ft | 490 kts | 10° |
| 2026-05-06 17:19 | 8.74683 | 104.36771 | 36827 ft | 490 kts | 10° |
| 2026-05-06 17:20 | 8.81427 | 104.37904 | 36834 ft | 490 kts | 10° |
| 2026-05-06 17:20 | 8.88169 | 104.39037 | 36836 ft | 490 kts | 10° |
| 2026-05-06 17:21 | 8.94923 | 104.40173 | 36843 ft | 491 kts | 10° |
| 2026-05-06 17:21 | 9.01675 | 104.41308 | 36847 ft | 492 kts | 10° |
| 2026-05-06 17:22 | 9.08437 | 104.42445 | 36848 ft | 491 kts | 10° |
| 2026-05-06 17:22 | 9.15192 | 104.43582 | 36846 ft | 491 kts | 10° |
| 2026-05-06 17:23 | 9.21905 | 104.44713 | 36840 ft | 490 kts | 10° |
| 2026-05-06 17:23 | 9.28646 | 104.45848 | 36837 ft | 490 kts | 10° |
| 2026-05-06 17:24 | 9.35424 | 104.46990 | 36834 ft | 490 kts | 10° |
| 2026-05-06 17:24 | 9.42150 | 104.48124 | 36837 ft | 491 kts | 10° |
| 2026-05-06 17:25 | 9.48915 | 104.49264 | 36836 ft | 490 kts | 10° |
| 2026-05-06 17:25 | 9.55628 | 104.50397 | 36836 ft | 489 kts | 10° |
| 2026-05-06 17:26 | 9.62381 | 104.51537 | 36836 ft | 489 kts | 10° |
| 2026-05-06 17:26 | 9.69094 | 104.52670 | 36837 ft | 488 kts | 10° |
| 2026-05-06 17:27 | 9.75799 | 104.53803 | 36836 ft | 487 kts | 10° |
| 2026-05-06 17:27 | 9.82495 | 104.54935 | 36834 ft | 488 kts | 10° |
| 2026-05-06 17:28 | 9.89191 | 104.56066 | 36829 ft | 485 kts | 10° |
| 2026-05-06 17:28 | 9.95859 | 104.57194 | 36827 ft | 485 kts | 10° |
| 2026-05-06 17:29 | 10.02529 | 104.58323 | 36827 ft | 486 kts | 10° |
| 2026-05-06 17:29 | 10.09215 | 104.59471 | 36826 ft | 486 kts | 11° |
| 2026-05-06 17:30 | 10.15903 | 104.60675 | 36826 ft | 485 kts | 10° |
| 2026-05-06 17:30 | 10.22575 | 104.61876 | 36832 ft | 488 kts | 11° |
| 2026-05-06 17:31 | 10.29232 | 104.63072 | 36827 ft | 485 kts | 10° |
| 2026-05-06 17:31 | 10.36027 | 104.64293 | 36831 ft | 489 kts | 11° |
| 2026-05-06 17:32 | 10.42797 | 104.65510 | 36832 ft | 489 kts | 11° |
| 2026-05-06 17:32 | 10.49537 | 104.66721 | 36830 ft | 495 kts | 10° |
| 2026-05-06 17:33 | 10.56257 | 104.68162 | 36841 ft | 495 kts | 15° |
| 2026-05-06 17:33 | 10.62930 | 104.70058 | 36833 ft | 495 kts | 15° |
| 2026-05-06 17:34 | 10.69567 | 104.71950 | 36837 ft | 496 kts | 16° |
| 2026-05-06 17:34 | 10.76184 | 104.73834 | 36836 ft | 494 kts | 15° |
| 2026-05-06 17:35 | 10.82847 | 104.75732 | 36834 ft | 494 kts | 15° |
| 2026-05-06 17:35 | 10.89480 | 104.77620 | 36835 ft | 495 kts | 15° |
| 2026-05-06 17:36 | 10.99411 | 104.80448 | 36837 ft | 494 kts | 15° |
| 2026-05-06 17:36 | 11.06054 | 104.82341 | 36840 ft | 496 kts | 15° |
| 2026-05-06 17:37 | 11.12695 | 104.84234 | 36847 ft | 494 kts | 15° |
| 2026-05-06 17:37 | 11.19342 | 104.86129 | 36847 ft | 493 kts | 15° |
| 2026-05-06 17:38 | 11.25989 | 104.88026 | 36848 ft | 494 kts | 15° |
| 2026-05-06 17:38 | 11.32696 | 104.89940 | 36846 ft | 494 kts | 15° |
| 2026-05-06 17:39 | 11.39448 | 104.91605 | 36849 ft | 493 kts | 11° |
| 2026-05-06 17:39 | 11.46223 | 104.93001 | 36842 ft | 493 kts | 11° |
| 2026-05-06 17:40 | 11.52932 | 104.94403 | 36844 ft | 493 kts | 11° |
| 2026-05-06 17:40 | 11.59630 | 104.95817 | 36837 ft | 491 kts | 11° |
| 2026-05-06 17:41 | 11.66364 | 104.97245 | 36838 ft | 492 kts | 11° |
| 2026-05-06 17:41 | 11.73072 | 104.98673 | 36833 ft | 491 kts | 11° |
| 2026-05-06 17:42 | 11.79744 | 105.00096 | 36834 ft | 490 kts | 11° |
| 2026-05-06 17:42 | 11.86451 | 105.01529 | 36830 ft | 490 kts | 11° |
| 2026-05-06 17:43 | 11.93109 | 105.02952 | 36830 ft | 489 kts | 11° |
| 2026-05-06 17:43 | 11.99789 | 105.04381 | 36828 ft | 489 kts | 11° |
| 2026-05-06 17:44 | 12.06458 | 105.05808 | 36829 ft | 490 kts | 11° |
| 2026-05-06 17:44 | 12.13161 | 105.07244 | 36829 ft | 490 kts | 11° |
| 2026-05-06 17:45 | 12.19853 | 105.08678 | 36832 ft | 490 kts | 11° |
| 2026-05-06 17:45 | 12.26522 | 105.10109 | 36834 ft | 490 kts | 11° |
| 2026-05-06 17:46 | 12.33203 | 105.11543 | 36835 ft | 490 kts | 11° |
| 2026-05-06 17:46 | 12.39880 | 105.12976 | 36831 ft | 490 kts | 11° |
| 2026-05-06 17:47 | 12.46539 | 105.14407 | 36831 ft | 490 kts | 11° |
| 2026-05-06 17:47 | 12.53243 | 105.15848 | 36826 ft | 490 kts | 11° |
| 2026-05-06 17:48 | 12.59902 | 105.17280 | 36820 ft | 490 kts | 11° |
| 2026-05-06 17:48 | 12.66573 | 105.18715 | 36822 ft | 490 kts | 11° |
| 2026-05-06 17:49 | 12.73286 | 105.20161 | 36826 ft | 490 kts | 11° |
| 2026-05-06 17:49 | 12.79975 | 105.21601 | 36824 ft | 490 kts | 11° |
| 2026-05-06 17:50 | 12.86677 | 105.23045 | 36826 ft | 491 kts | 11° |
| 2026-05-06 17:50 | 12.93396 | 105.24494 | 36818 ft | 491 kts | 11° |
| 2026-05-06 17:51 | 13.00086 | 105.25938 | 36812 ft | 490 kts | 11° |
| 2026-05-06 17:51 | 13.06759 | 105.27378 | 36813 ft | 490 kts | 11° |
| 2026-05-06 17:52 | 13.13580 | 105.28852 | 36815 ft | 490 kts | 11° |
| 2026-05-06 17:52 | 13.20286 | 105.30301 | 36825 ft | 489 kts | 10° |
| 2026-05-06 17:53 | 13.26958 | 105.31744 | 36837 ft | 489 kts | 10° |
| 2026-05-06 17:53 | 13.33595 | 105.33179 | 36842 ft | 490 kts | 10° |
| 2026-05-06 17:54 | 13.40321 | 105.34636 | 36842 ft | 491 kts | 11° |
| 2026-05-06 17:54 | 13.47006 | 105.36084 | 36844 ft | 490 kts | 10° |
| 2026-05-06 17:55 | 13.53685 | 105.37531 | 36845 ft | 489 kts | 10° |
| 2026-05-06 17:55 | 13.60337 | 105.38974 | 36847 ft | 489 kts | 10° |
| 2026-05-06 17:56 | 13.67031 | 105.40426 | 36847 ft | 489 kts | 10° |
| 2026-05-06 17:56 | 13.73686 | 105.41871 | 36849 ft | 490 kts | 10° |
| 2026-05-06 17:57 | 13.80364 | 105.43323 | 36848 ft | 491 kts | 11° |
| 2026-05-06 17:57 | 13.86996 | 105.45055 | 36850 ft | 490 kts | 13° |
| 2026-05-06 17:58 | 13.93609 | 105.46832 | 36848 ft | 490 kts | 13° |
| 2026-05-06 17:58 | 14.00211 | 105.48595 | 36852 ft | 490 kts | 13° |
| 2026-05-06 17:59 | 14.06801 | 105.50350 | 36849 ft | 489 kts | 13° |
| 2026-05-06 17:59 | 14.13388 | 105.52102 | 36848 ft | 488 kts | 13° |
| 2026-05-06 18:00 | 14.20036 | 105.53510 | 36844 ft | 488 kts | 9° |
| 2026-05-06 18:00 | 14.26731 | 105.54839 | 36839 ft | 488 kts | 9° |
| 2026-05-06 18:01 | 14.33406 | 105.56180 | 36838 ft | 489 kts | 9° |
| 2026-05-06 18:01 | 14.40084 | 105.57531 | 36840 ft | 487 kts | 9° |
| 2026-05-06 18:02 | 14.46774 | 105.58890 | 36840 ft | 487 kts | 9° |
| 2026-05-06 18:02 | 14.53413 | 105.60242 | 36847 ft | 488 kts | 9° |
| 2026-05-06 18:03 | 14.60066 | 105.61599 | 36854 ft | 488 kts | 9° |
| 2026-05-06 18:03 | 14.66757 | 105.62965 | 36855 ft | 488 kts | 9° |
| 2026-05-06 18:04 | 14.73425 | 105.64329 | 36858 ft | 487 kts | 9° |
| 2026-05-06 18:04 | 14.80105 | 105.65695 | 36855 ft | 487 kts | 10° |
| 2026-05-06 18:05 | 14.86748 | 105.67055 | 36866 ft | 487 kts | 10° |
| 2026-05-06 18:05 | 14.93423 | 105.68423 | 36875 ft | 487 kts | 10° |
| 2026-05-06 18:06 | 15.00102 | 105.69792 | 36879 ft | 487 kts | 10° |
| 2026-05-06 18:06 | 15.06780 | 105.71162 | 36878 ft | 487 kts | 10° |
| 2026-05-06 18:07 | 15.13441 | 105.72529 | 36869 ft | 487 kts | 10° |
| 2026-05-06 18:07 | 15.20075 | 105.73891 | 36849 ft | 486 kts | 10° |
| 2026-05-06 18:08 | 15.26740 | 105.74979 | 36842 ft | 485 kts | 7° |
| 2026-05-06 18:08 | 15.33426 | 105.76006 | 36835 ft | 485 kts | 7° |
| 2026-05-06 18:09 | 15.40151 | 105.77052 | 36840 ft | 486 kts | 7° |
| 2026-05-06 18:09 | 15.47091 | 105.78139 | 36846 ft | 486 kts | 7° |
| 2026-05-06 18:10 | 15.53804 | 105.79194 | 36847 ft | 486 kts | 8° |
| 2026-05-06 18:10 | 15.60518 | 105.80253 | 36851 ft | 486 kts | 8° |
| 2026-05-06 18:11 | 15.67164 | 105.81302 | 36848 ft | 485 kts | 7° |
| 2026-05-06 18:11 | 15.73847 | 105.82359 | 36848 ft | 486 kts | 8° |
| 2026-05-06 18:12 | 15.80539 | 105.83417 | 36850 ft | 486 kts | 8° |
| 2026-05-06 18:12 | 15.87234 | 105.84477 | 36852 ft | 486 kts | 8° |
| 2026-05-06 18:13 | 15.93964 | 105.85544 | 36860 ft | 487 kts | 8° |
| 2026-05-06 18:13 | 16.00645 | 105.86603 | 36868 ft | 485 kts | 8° |
| 2026-05-06 18:14 | 16.07337 | 105.87666 | 36863 ft | 485 kts | 8° |
| 2026-05-06 18:14 | 16.14023 | 105.88727 | 36879 ft | 486 kts | 8° |
| 2026-05-06 18:15 | 16.20739 | 105.89794 | 36878 ft | 487 kts | 8° |
| 2026-05-06 18:15 | 16.27412 | 105.90855 | 36878 ft | 487 kts | 8° |
| 2026-05-06 18:16 | 16.34130 | 105.91925 | 36877 ft | 488 kts | 8° |
| 2026-05-06 18:16 | 16.40868 | 105.92998 | 36879 ft | 488 kts | 7° |
| 2026-05-06 18:17 | 16.47569 | 105.94066 | 36876 ft | 487 kts | 7° |
| 2026-05-06 18:17 | 16.54313 | 105.95141 | 36877 ft | 488 kts | 7° |
| 2026-05-06 18:18 | 16.61005 | 105.96209 | 36888 ft | 487 kts | 7° |
| 2026-05-06 18:18 | 16.67721 | 105.97282 | 36892 ft | 489 kts | 7° |
| 2026-05-06 18:19 | 16.74472 | 105.98360 | 36896 ft | 490 kts | 7° |
| 2026-05-06 18:19 | 16.81261 | 105.99446 | 36898 ft | 490 kts | 7° |
| 2026-05-06 18:20 | 16.87997 | 106.00524 | 36890 ft | 490 kts | 7° |
| 2026-05-06 18:20 | 16.94793 | 106.01613 | 36878 ft | 490 kts | 7° |
| 2026-05-06 18:21 | 17.01536 | 106.02693 | 36865 ft | 490 kts | 7° |
| 2026-05-06 18:21 | 17.08255 | 106.03771 | 36867 ft | 490 kts | 7° |
| 2026-05-06 18:22 | 17.15031 | 106.04858 | 36872 ft | 491 kts | 7° |
| 2026-05-06 18:22 | 17.21769 | 106.05941 | 36877 ft | 491 kts | 7° |
| 2026-05-06 18:23 | 17.28542 | 106.07030 | 36883 ft | 492 kts | 7° |
| 2026-05-06 18:23 | 17.35299 | 106.08113 | 36891 ft | 491 kts | 6° |
| 2026-05-06 18:24 | 17.42122 | 106.08417 | 36903 ft | 491 kts | 359° |
| 2026-05-06 18:24 | 17.48971 | 106.08485 | 36909 ft | 490 kts | 359° |
| 2026-05-06 18:25 | 17.55803 | 106.08557 | 36903 ft | 490 kts | 359° |
| 2026-05-06 18:25 | 17.62752 | 106.08633 | 36887 ft | 490 kts | 359° |
| 2026-05-06 18:26 | 17.69880 | 106.08712 | 36873 ft | 490 kts | 359° |
| 2026-05-06 18:26 | 17.76704 | 106.08787 | 36863 ft | 490 kts | 359° |
| 2026-05-06 18:27 | 17.83528 | 106.08865 | 36861 ft | 491 kts | 359° |
| 2026-05-06 18:27 | 17.90658 | 106.08945 | 36852 ft | 491 kts | 359° |
| 2026-05-06 18:28 | 17.97472 | 106.09021 | 36848 ft | 492 kts | 359° |
| 2026-05-06 18:28 | 18.04339 | 106.09099 | 36841 ft | 491 kts | 359° |
| 2026-05-06 18:29 | 18.11169 | 106.09176 | 36835 ft | 490 kts | 359° |
| 2026-05-06 18:29 | 18.18009 | 106.09254 | 36831 ft | 491 kts | 359° |
| 2026-05-06 18:30 | 18.24852 | 106.09331 | 36828 ft | 491 kts | 359° |
| 2026-05-06 18:30 | 18.31678 | 106.09407 | 36828 ft | 490 kts | 359° |
| 2026-05-06 18:31 | 18.38495 | 106.09483 | 36826 ft | 490 kts | 359° |
| 2026-05-06 18:31 | 18.45334 | 106.09560 | 36816 ft | 490 kts | 359° |
| 2026-05-06 18:32 | 18.52136 | 106.09635 | 36809 ft | 490 kts | 358° |
| 2026-05-06 18:32 | 18.58959 | 106.09712 | 36808 ft | 490 kts | 359° |
| 2026-05-06 18:33 | 18.65797 | 106.09788 | 36806 ft | 490 kts | 359° |
| 2026-05-06 18:33 | 18.72612 | 106.09872 | 36814 ft | 490 kts | 359° |
| 2026-05-06 18:34 | 18.79444 | 106.09958 | 36810 ft | 490 kts | 359° |
| 2026-05-06 18:34 | 18.86252 | 106.10043 | 36812 ft | 489 kts | 359° |
| 2026-05-06 18:35 | 18.93111 | 106.10129 | 36808 ft | 488 kts | 358° |
| 2026-05-06 18:35 | 18.99975 | 106.10210 | 36810 ft | 488 kts | 358° |
| 2026-05-06 18:36 | 19.06775 | 106.10286 | 36804 ft | 488 kts | 358° |
| 2026-05-06 18:36 | 19.13591 | 106.10362 | 36809 ft | 489 kts | 359° |
| 2026-05-06 18:37 | 19.20419 | 106.10438 | 36810 ft | 489 kts | 359° |
| 2026-05-06 18:37 | 19.27199 | 106.10514 | 36812 ft | 488 kts | 358° |
| 2026-05-06 18:38 | 19.34021 | 106.10591 | 36814 ft | 487 kts | 358° |
| 2026-05-06 18:38 | 19.40999 | 106.10670 | 36817 ft | 487 kts | 358° |
| 2026-05-06 18:39 | 19.47828 | 106.10746 | 36816 ft | 487 kts | 358° |
| 2026-05-06 18:40 | 19.58028 | 106.11291 | 36819 ft | 489 kts | 3° |
| 2026-05-06 18:40 | 19.64793 | 106.11922 | 36822 ft | 488 kts | 2° |
| 2026-05-06 18:41 | 19.71559 | 106.12533 | 36826 ft | 487 kts | 2° |
| 2026-05-06 18:41 | 19.78289 | 106.13129 | 36827 ft | 486 kts | 2° |
| 2026-05-06 18:42 | 19.85061 | 106.13723 | 36827 ft | 486 kts | 2° |
| 2026-05-06 18:42 | 19.91933 | 106.14323 | 36827 ft | 486 kts | 2° |
| 2026-05-06 18:43 | 19.98671 | 106.14909 | 36828 ft | 486 kts | 2° |
| 2026-05-06 18:43 | 20.05431 | 106.15498 | 36824 ft | 485 kts | 2° |
| 2026-05-06 18:44 | 20.12155 | 106.16083 | 36816 ft | 485 kts | 2° |
| 2026-05-06 18:44 | 20.18857 | 106.16666 | 36817 ft | 485 kts | 2° |
| 2026-05-06 18:45 | 20.25598 | 106.17253 | 36811 ft | 485 kts | 2° |
| 2026-05-06 18:45 | 20.32345 | 106.17841 | 36814 ft | 484 kts | 2° |
| 2026-05-06 18:46 | 20.39068 | 106.18428 | 36816 ft | 485 kts | 2° |
| 2026-05-06 18:46 | 20.45773 | 106.19013 | 36813 ft | 485 kts | 2° |
| 2026-05-06 18:47 | 20.52513 | 106.19602 | 36815 ft | 485 kts | 2° |
| 2026-05-06 18:47 | 20.59268 | 106.20193 | 36813 ft | 483 kts | 2° |
| 2026-05-06 18:48 | 20.65933 | 106.20776 | 36817 ft | 483 kts | 2° |
| 2026-05-06 18:48 | 20.72674 | 106.21367 | 36817 ft | 482 kts | 2° |
| 2026-05-06 18:49 | 20.79357 | 106.21953 | 36814 ft | 483 kts | 2° |
| 2026-05-06 18:49 | 20.86015 | 106.22915 | 36826 ft | 486 kts | 9° |
| 2026-05-06 18:50 | 20.92629 | 106.24480 | 36829 ft | 486 kts | 9° |
| 2026-05-06 18:50 | 20.99234 | 106.26052 | 36833 ft | 486 kts | 9° |
| 2026-05-06 18:51 | 21.05844 | 106.27625 | 36836 ft | 485 kts | 9° |
| 2026-05-06 18:51 | 21.12443 | 106.29194 | 36844 ft | 485 kts | 9° |
| 2026-05-06 18:52 | 21.19048 | 106.30765 | 36846 ft | 485 kts | 9° |
| 2026-05-06 18:52 | 21.25618 | 106.32330 | 36851 ft | 486 kts | 9° |
| 2026-05-06 18:53 | 21.32243 | 106.33909 | 36852 ft | 487 kts | 9° |
| 2026-05-06 18:53 | 21.38980 | 106.35516 | 36854 ft | 486 kts | 9° |
| 2026-05-06 18:54 | 21.45588 | 106.37093 | 36854 ft | 486 kts | 9° |
| 2026-05-06 18:54 | 21.52216 | 106.38677 | 36859 ft | 486 kts | 9° |
| 2026-05-06 18:55 | 21.58778 | 106.40247 | 36868 ft | 486 kts | 9° |
| 2026-05-06 18:55 | 21.65415 | 106.41836 | 36880 ft | 486 kts | 9° |
| 2026-05-06 18:56 | 21.72035 | 106.43421 | 36893 ft | 486 kts | 9° |
| 2026-05-06 18:56 | 21.78637 | 106.45005 | 36899 ft | 486 kts | 9° |
| 2026-05-06 18:57 | 21.85221 | 106.46586 | 36899 ft | 486 kts | 9° |
| 2026-05-06 18:57 | 21.91863 | 106.48649 | 36896 ft | 492 kts | 21° |
| 2026-05-06 18:58 | 21.97654 | 106.52616 | 36891 ft | 500 kts | 38° |
| 2026-05-06 18:58 | 22.02171 | 106.58345 | 36898 ft | 507 kts | 53° |
| 2026-05-06 18:59 | 22.06006 | 106.64676 | 36887 ft | 507 kts | 54° |
| 2026-05-06 18:59 | 22.10158 | 106.71559 | 36883 ft | 507 kts | 54° |
| 2026-05-06 19:00 | 22.14426 | 106.78632 | 36884 ft | 507 kts | 54° |
| 2026-05-06 19:00 | 22.18325 | 106.85094 | 36880 ft | 505 kts | 54° |
| 2026-05-06 19:01 | 22.22169 | 106.91469 | 36874 ft | 506 kts | 54° |
| 2026-05-06 19:01 | 22.25993 | 106.97818 | 36870 ft | 506 kts | 54° |
| 2026-05-06 19:02 | 22.29831 | 107.04197 | 36872 ft | 507 kts | 54° |
| 2026-05-06 19:02 | 22.33665 | 107.10575 | 36873 ft | 508 kts | 54° |
| 2026-05-06 19:03 | 22.37558 | 107.16929 | 36868 ft | 505 kts | 49° |
| 2026-05-06 19:03 | 22.42506 | 107.22151 | 36876 ft | 496 kts | 31° |
| 2026-05-06 19:04 | 22.48555 | 107.25510 | 36879 ft | 485 kts | 14° |
| 2026-05-06 19:04 | 22.55073 | 107.26939 | 36888 ft | 479 kts | 4° |
| 2026-05-06 19:05 | 22.61729 | 107.27853 | 36888 ft | 478 kts | 3° |
| 2026-05-06 19:05 | 22.68313 | 107.28719 | 36891 ft | 477 kts | 3° |
| 2026-05-06 19:06 | 22.74899 | 107.29570 | 36895 ft | 478 kts | 3° |
| 2026-05-06 19:06 | 22.81529 | 107.30418 | 36898 ft | 477 kts | 2° |
| 2026-05-06 19:07 | 22.88111 | 107.31255 | 36899 ft | 477 kts | 2° |
| 2026-05-06 19:07 | 22.94724 | 107.32095 | 36908 ft | 476 kts | 2° |
| 2026-05-06 19:08 | 23.01287 | 107.32926 | 36915 ft | 478 kts | 2° |
| 2026-05-06 19:08 | 23.07886 | 107.33764 | 36907 ft | 477 kts | 2° |
| 2026-05-06 19:09 | 23.14478 | 107.34601 | 36908 ft | 477 kts | 2° |
| 2026-05-06 19:09 | 23.21086 | 107.35440 | 36897 ft | 476 kts | 2° |
| 2026-05-06 19:10 | 23.27680 | 107.36278 | 36890 ft | 477 kts | 2° |
| 2026-05-06 19:10 | 23.34282 | 107.37118 | 36887 ft | 477 kts | 2° |
| 2026-05-06 19:11 | 23.40893 | 107.37960 | 36882 ft | 477 kts | 2° |
| 2026-05-06 19:11 | 23.47471 | 107.38799 | 36884 ft | 477 kts | 2° |
| 2026-05-06 19:12 | 23.54084 | 107.39643 | 36889 ft | 477 kts | 2° |
| 2026-05-06 19:12 | 23.60680 | 107.40486 | 36895 ft | 476 kts | 2° |
| 2026-05-06 19:13 | 23.67274 | 107.41329 | 36897 ft | 477 kts | 2° |